sensor_id;sensor_type;location;lat;lon;timestamp;P1;durP1;ratioP1;P2;durP2;ratioP2
417;SDS011;49;48.530;9.200;2022-12-08T00:01:32;15.17;;;9.83;;
417;SDS011;49;48.530;9.200;2022-12-08T00:04:02;15.07;;;10.30;;
417;SDS011;49;48.530;9.200;2022-12-08T00:06:34;12.87;;;9.47;;
417;SDS011;49;48.530;9.200;2022-12-08T00:09:21;26.63;;;10.50;;
417;SDS011;49;48.530;9.200;2022-12-08T00:11:52;19.37;;;10.63;;
417;SDS011;49;48.530;9.200;2022-12-08T00:14:21;14.93;;;9.20;;
417;SDS011;49;48.530;9.200;2022-12-08T00:16:50;14.10;;;10.00;;
417;SDS011;49;48.530;9.200;2022-12-08T00:19:17;14.37;;;9.10;;
417;SDS011;49;48.530;9.200;2022-12-08T00:21:46;13.40;;;9.63;;
417;SDS011;49;48.530;9.200;2022-12-08T00:24:13;18.03;;;10.20;;
417;SDS011;49;48.530;9.200;2022-12-08T00:26:41;11.50;;;8.20;;
417;SDS011;49;48.530;9.200;2022-12-08T00:29:08;13.50;;;8.93;;
417;SDS011;49;48.530;9.200;2022-12-08T00:31:35;14.70;;;9.50;;
417;SDS011;49;48.530;9.200;2022-12-08T00:34:01;13.47;;;8.93;;
417;SDS011;49;48.530;9.200;2022-12-08T00:36:29;18.00;;;10.10;;
417;SDS011;49;48.530;9.200;2022-12-08T00:38:57;12.93;;;9.43;;
417;SDS011;49;48.530;9.200;2022-12-08T00:41:25;16.37;;;9.30;;
417;SDS011;49;48.530;9.200;2022-12-08T00:44:10;12.90;;;8.90;;
417;SDS011;49;48.530;9.200;2022-12-08T00:46:39;17.17;;;9.63;;
417;SDS011;49;48.530;9.200;2022-12-08T00:49:06;19.87;;;9.77;;
417;SDS011;49;48.530;9.200;2022-12-08T00:51:33;11.63;;;8.07;;
417;SDS011;49;48.530;9.200;2022-12-08T00:54:02;13.40;;;8.67;;
417;SDS011;49;48.530;9.200;2022-12-08T00:56:32;18.27;;;10.90;;
417;SDS011;49;48.530;9.200;2022-12-08T00:58:59;19.80;;;12.90;;
417;SDS011;49;48.530;9.200;2022-12-08T01:01:26;16.83;;;10.10;;
417;SDS011;49;48.530;9.200;2022-12-08T01:03:53;13.47;;;8.93;;
417;SDS011;49;48.530;9.200;2022-12-08T01:06:20;10.20;;;7.43;;
417;SDS011;49;48.530;9.200;2022-12-08T01:08:50;12.63;;;8.60;;
417;SDS011;49;48.530;9.200;2022-12-08T01:11:21;10.87;;;7.60;;
417;SDS011;49;48.530;9.200;2022-12-08T01:13:48;11.50;;;8.47;;
417;SDS011;49;48.530;9.200;2022-12-08T01:16:18;12.07;;;7.60;;
417;SDS011;49;48.530;9.200;2022-12-08T01:18:46;11.33;;;8.50;;
417;SDS011;49;48.530;9.200;2022-12-08T01:21:14;13.87;;;8.67;;
417;SDS011;49;48.530;9.200;2022-12-08T01:23:41;12.23;;;8.30;;
417;SDS011;49;48.530;9.200;2022-12-08T01:26:12;16.20;;;9.30;;
417;SDS011;49;48.530;9.200;2022-12-08T01:28:42;11.90;;;8.47;;
417;SDS011;49;48.530;9.200;2022-12-08T01:31:10;12.73;;;8.60;;
417;SDS011;49;48.530;9.200;2022-12-08T01:33:39;11.87;;;8.27;;
417;SDS011;49;48.530;9.200;2022-12-08T01:36:07;14.53;;;9.50;;
417;SDS011;49;48.530;9.200;2022-12-08T01:38:35;13.17;;;8.90;;
417;SDS011;49;48.530;9.200;2022-12-08T01:41:04;16.67;;;10.67;;
417;SDS011;49;48.530;9.200;2022-12-08T01:43:43;17.57;;;10.33;;
417;SDS011;49;48.530;9.200;2022-12-08T01:46:23;14.93;;;10.20;;
417;SDS011;49;48.530;9.200;2022-12-08T01:48:51;17.50;;;9.47;;
417;SDS011;49;48.530;9.200;2022-12-08T01:51:24;14.67;;;9.47;;
417;SDS011;49;48.530;9.200;2022-12-08T01:53:52;14.07;;;8.77;;
417;SDS011;49;48.530;9.200;2022-12-08T01:56:22;13.00;;;8.60;;
417;SDS011;49;48.530;9.200;2022-12-08T01:58:59;10.87;;;7.80;;
417;SDS011;49;48.530;9.200;2022-12-08T02:01:26;16.97;;;10.23;;
417;SDS011;49;48.530;9.200;2022-12-08T02:03:55;10.80;;;7.43;;
417;SDS011;49;48.530;9.200;2022-12-08T02:06:27;16.93;;;10.87;;
417;SDS011;49;48.530;9.200;2022-12-08T02:08:58;31.03;;;9.50;;
417;SDS011;49;48.530;9.200;2022-12-08T02:11:29;15.53;;;9.00;;
417;SDS011;49;48.530;9.200;2022-12-08T02:13:56;13.50;;;8.30;;
417;SDS011;49;48.530;9.200;2022-12-08T02:16:32;12.80;;;7.90;;
417;SDS011;49;48.530;9.200;2022-12-08T02:19:14;27.43;;;9.73;;
417;SDS011;49;48.530;9.200;2022-12-08T02:22:02;12.50;;;7.40;;
417;SDS011;49;48.530;9.200;2022-12-08T02:24:37;11.50;;;7.67;;
417;SDS011;49;48.530;9.200;2022-12-08T02:30:11;13.30;;;8.30;;
417;SDS011;49;48.530;9.200;2022-12-08T02:36:24;15.93;;;10.53;;
417;SDS011;49;48.530;9.200;2022-12-08T02:39:02;14.13;;;9.90;;
417;SDS011;49;48.530;9.200;2022-12-08T02:41:37;10.20;;;7.83;;
417;SDS011;49;48.530;9.200;2022-12-08T02:44:11;13.83;;;9.80;;
417;SDS011;49;48.530;9.200;2022-12-08T02:46:46;19.63;;;10.30;;
417;SDS011;49;48.530;9.200;2022-12-08T02:49:16;14.00;;;8.93;;
417;SDS011;49;48.530;9.200;2022-12-08T02:51:44;15.63;;;10.80;;
417;SDS011;49;48.530;9.200;2022-12-08T02:54:13;20.70;;;9.73;;
417;SDS011;49;48.530;9.200;2022-12-08T02:56:45;16.27;;;10.50;;
417;SDS011;49;48.530;9.200;2022-12-08T02:59:26;28.50;;;12.67;;
417;SDS011;49;48.530;9.200;2022-12-08T03:02:05;13.90;;;9.07;;
417;SDS011;49;48.530;9.200;2022-12-08T03:04:52;14.90;;;9.70;;
417;SDS011;49;48.530;9.200;2022-12-08T03:07:32;14.57;;;8.43;;
417;SDS011;49;48.530;9.200;2022-12-08T03:10:04;16.17;;;10.03;;
417;SDS011;49;48.530;9.200;2022-12-08T03:12:38;14.40;;;7.80;;
417;SDS011;49;48.530;9.200;2022-12-08T03:15:08;15.73;;;9.93;;
417;SDS011;49;48.530;9.200;2022-12-08T03:17:37;14.30;;;9.60;;
417;SDS011;49;48.530;9.200;2022-12-08T03:20:10;11.53;;;6.73;;
417;SDS011;49;48.530;9.200;2022-12-08T03:22:43;20.10;;;10.60;;
417;SDS011;49;48.530;9.200;2022-12-08T03:25:13;21.37;;;11.57;;
417;SDS011;49;48.530;9.200;2022-12-08T03:27:42;16.33;;;11.10;;
417;SDS011;49;48.530;9.200;2022-12-08T03:30:10;19.33;;;11.90;;
417;SDS011;49;48.530;9.200;2022-12-08T03:32:38;16.27;;;10.00;;
417;SDS011;49;48.530;9.200;2022-12-08T03:35:13;14.57;;;7.87;;
417;SDS011;49;48.530;9.200;2022-12-08T03:37:44;15.23;;;9.60;;
417;SDS011;49;48.530;9.200;2022-12-08T03:40:12;14.43;;;9.40;;
417;SDS011;49;48.530;9.200;2022-12-08T03:42:41;16.40;;;9.83;;
417;SDS011;49;48.530;9.200;2022-12-08T03:45:09;21.60;;;10.70;;
417;SDS011;49;48.530;9.200;2022-12-08T03:47:38;18.37;;;8.83;;
417;SDS011;49;48.530;9.200;2022-12-08T03:50:06;14.87;;;8.40;;
417;SDS011;49;48.530;9.200;2022-12-08T03:52:33;14.80;;;9.20;;
417;SDS011;49;48.530;9.200;2022-12-08T03:55:05;16.80;;;9.77;;
417;SDS011;49;48.530;9.200;2022-12-08T03:57:35;13.60;;;8.30;;
417;SDS011;49;48.530;9.200;2022-12-08T04:00:02;12.03;;;8.33;;
417;SDS011;49;48.530;9.200;2022-12-08T04:02:31;14.80;;;8.23;;
417;SDS011;49;48.530;9.200;2022-12-08T04:05:03;14.97;;;9.03;;
417;SDS011;49;48.530;9.200;2022-12-08T04:07:36;10.10;;;7.37;;
417;SDS011;49;48.530;9.200;2022-12-08T04:10:07;14.17;;;8.07;;
417;SDS011;49;48.530;9.200;2022-12-08T04:12:37;15.43;;;8.67;;
417;SDS011;49;48.530;9.200;2022-12-08T04:15:05;15.53;;;8.13;;
417;SDS011;49;48.530;9.200;2022-12-08T04:17:35;12.87;;;8.27;;
417;SDS011;49;48.530;9.200;2022-12-08T04:20:03;11.67;;;8.57;;
417;SDS011;49;48.530;9.200;2022-12-08T04:22:36;12.03;;;8.47;;
417;SDS011;49;48.530;9.200;2022-12-08T04:25:07;10.43;;;7.00;;
417;SDS011;49;48.530;9.200;2022-12-08T04:27:37;15.93;;;8.60;;
417;SDS011;49;48.530;9.200;2022-12-08T04:30:04;13.50;;;7.17;;
417;SDS011;49;48.530;9.200;2022-12-08T04:32:32;16.90;;;8.33;;
417;SDS011;49;48.530;9.200;2022-12-08T04:35:01;15.43;;;9.30;;
417;SDS011;49;48.530;9.200;2022-12-08T04:37:30;13.23;;;8.80;;
417;SDS011;49;48.530;9.200;2022-12-08T04:40:03;12.90;;;9.17;;
417;SDS011;49;48.530;9.200;2022-12-08T04:42:38;9.63;;;6.53;;
417;SDS011;49;48.530;9.200;2022-12-08T04:45:05;10.77;;;7.60;;
417;SDS011;49;48.530;9.200;2022-12-08T04:47:36;14.40;;;9.53;;
417;SDS011;49;48.530;9.200;2022-12-08T04:50:06;14.00;;;8.20;;
417;SDS011;49;48.530;9.200;2022-12-08T04:52:37;11.40;;;8.10;;
417;SDS011;49;48.530;9.200;2022-12-08T04:55:09;13.00;;;8.33;;
417;SDS011;49;48.530;9.200;2022-12-08T04:57:39;12.73;;;8.20;;
417;SDS011;49;48.530;9.200;2022-12-08T05:00:10;17.17;;;11.13;;
417;SDS011;49;48.530;9.200;2022-12-08T05:02:37;15.10;;;10.40;;
417;SDS011;49;48.530;9.200;2022-12-08T05:05:05;24.77;;;15.53;;
417;SDS011;49;48.530;9.200;2022-12-08T05:07:41;20.43;;;9.90;;
417;SDS011;49;48.530;9.200;2022-12-08T05:10:12;17.80;;;10.60;;
417;SDS011;49;48.530;9.200;2022-12-08T05:12:39;15.03;;;10.07;;
417;SDS011;49;48.530;9.200;2022-12-08T05:15:07;16.50;;;9.60;;
417;SDS011;49;48.530;9.200;2022-12-08T05:17:42;14.40;;;9.83;;
417;SDS011;49;48.530;9.200;2022-12-08T05:20:09;13.47;;;8.00;;
417;SDS011;49;48.530;9.200;2022-12-08T05:22:41;13.67;;;8.23;;
417;SDS011;49;48.530;9.200;2022-12-08T05:25:13;15.57;;;11.20;;
417;SDS011;49;48.530;9.200;2022-12-08T05:27:43;17.47;;;10.70;;
417;SDS011;49;48.530;9.200;2022-12-08T05:30:10;16.23;;;10.47;;
417;SDS011;49;48.530;9.200;2022-12-08T05:32:40;12.87;;;9.00;;
417;SDS011;49;48.530;9.200;2022-12-08T05:35:07;14.80;;;9.40;;
417;SDS011;49;48.530;9.200;2022-12-08T05:37:39;18.00;;;9.47;;
417;SDS011;49;48.530;9.200;2022-12-08T05:40:09;11.17;;;7.53;;
417;SDS011;49;48.530;9.200;2022-12-08T05:42:48;17.50;;;8.87;;
417;SDS011;49;48.530;9.200;2022-12-08T05:45:22;12.40;;;8.37;;
417;SDS011;49;48.530;9.200;2022-12-08T05:47:51;14.83;;;8.80;;
417;SDS011;49;48.530;9.200;2022-12-08T05:50:21;16.70;;;8.90;;
417;SDS011;49;48.530;9.200;2022-12-08T05:52:48;8.27;;;6.27;;
417;SDS011;49;48.530;9.200;2022-12-08T05:55:18;10.90;;;6.93;;
417;SDS011;49;48.530;9.200;2022-12-08T05:57:47;14.37;;;9.53;;
417;SDS011;49;48.530;9.200;2022-12-08T06:00:17;17.67;;;10.23;;
417;SDS011;49;48.530;9.200;2022-12-08T06:02:44;15.07;;;10.07;;
417;SDS011;49;48.530;9.200;2022-12-08T06:05:11;15.13;;;10.40;;
417;SDS011;49;48.530;9.200;2022-12-08T06:07:42;14.00;;;9.10;;
417;SDS011;49;48.530;9.200;2022-12-08T06:10:10;14.83;;;9.60;;
417;SDS011;49;48.530;9.200;2022-12-08T06:12:43;13.83;;;9.90;;
417;SDS011;49;48.530;9.200;2022-12-08T06:15:13;21.50;;;10.10;;
417;SDS011;49;48.530;9.200;2022-12-08T06:17:44;15.57;;;9.50;;
417;SDS011;49;48.530;9.200;2022-12-08T06:20:11;17.53;;;10.63;;
417;SDS011;49;48.530;9.200;2022-12-08T06:22:46;19.30;;;10.47;;
417;SDS011;49;48.530;9.200;2022-12-08T06:25:13;16.37;;;10.93;;
417;SDS011;49;48.530;9.200;2022-12-08T06:27:43;17.13;;;11.07;;
417;SDS011;49;48.530;9.200;2022-12-08T06:30:20;20.13;;;11.50;;
417;SDS011;49;48.530;9.200;2022-12-08T06:32:51;15.43;;;10.37;;
417;SDS011;49;48.530;9.200;2022-12-08T06:35:20;18.50;;;11.37;;
417;SDS011;49;48.530;9.200;2022-12-08T06:37:49;22.40;;;11.13;;
417;SDS011;49;48.530;9.200;2022-12-08T06:40:16;17.17;;;10.70;;
417;SDS011;49;48.530;9.200;2022-12-08T06:42:45;17.17;;;9.83;;
417;SDS011;49;48.530;9.200;2022-12-08T06:45:16;16.43;;;10.80;;
417;SDS011;49;48.530;9.200;2022-12-08T06:47:48;17.83;;;11.70;;
417;SDS011;49;48.530;9.200;2022-12-08T06:50:18;19.33;;;11.40;;
417;SDS011;49;48.530;9.200;2022-12-08T06:52:54;17.53;;;11.57;;
417;SDS011;49;48.530;9.200;2022-12-08T06:55:21;17.33;;;11.37;;
417;SDS011;49;48.530;9.200;2022-12-08T06:57:48;16.17;;;11.30;;
417;SDS011;49;48.530;9.200;2022-12-08T07:00:15;22.30;;;12.10;;
417;SDS011;49;48.530;9.200;2022-12-08T07:02:51;17.10;;;11.10;;
417;SDS011;49;48.530;9.200;2022-12-08T07:05:20;17.03;;;10.87;;
417;SDS011;49;48.530;9.200;2022-12-08T07:07:50;21.93;;;11.60;;
417;SDS011;49;48.530;9.200;2022-12-08T07:10:17;21.47;;;11.67;;
417;SDS011;49;48.530;9.200;2022-12-08T07:12:44;29.03;;;15.50;;
417;SDS011;49;48.530;9.200;2022-12-08T07:15:13;24.07;;;13.23;;
417;SDS011;49;48.530;9.200;2022-12-08T07:17:41;27.47;;;13.30;;
417;SDS011;49;48.530;9.200;2022-12-08T07:20:15;13.90;;;8.70;;
417;SDS011;49;48.530;9.200;2022-12-08T07:22:51;15.43;;;11.33;;
417;SDS011;49;48.530;9.200;2022-12-08T07:25:21;13.43;;;9.03;;
417;SDS011;49;48.530;9.200;2022-12-08T07:27:48;22.33;;;11.77;;
417;SDS011;49;48.530;9.200;2022-12-08T07:30:18;15.13;;;9.20;;
417;SDS011;49;48.530;9.200;2022-12-08T07:32:47;15.80;;;10.80;;
417;SDS011;49;48.530;9.200;2022-12-08T07:35:18;15.27;;;10.40;;
417;SDS011;49;48.530;9.200;2022-12-08T07:37:47;17.83;;;10.07;;
417;SDS011;49;48.530;9.200;2022-12-08T07:40:17;17.10;;;10.73;;
417;SDS011;49;48.530;9.200;2022-12-08T07:42:44;14.90;;;10.40;;
417;SDS011;49;48.530;9.200;2022-12-08T07:45:14;20.00;;;10.30;;
417;SDS011;49;48.530;9.200;2022-12-08T07:47:46;14.27;;;9.70;;
417;SDS011;49;48.530;9.200;2022-12-08T07:50:13;19.73;;;12.03;;
417;SDS011;49;48.530;9.200;2022-12-08T07:52:47;16.10;;;9.67;;
417;SDS011;49;48.530;9.200;2022-12-08T07:55:14;17.30;;;11.20;;
417;SDS011;49;48.530;9.200;2022-12-08T07:57:44;18.50;;;11.70;;
417;SDS011;49;48.530;9.200;2022-12-08T08:00:18;20.37;;;12.03;;
417;SDS011;49;48.530;9.200;2022-12-08T08:02:46;16.03;;;9.67;;
417;SDS011;49;48.530;9.200;2022-12-08T08:05:13;14.47;;;9.30;;
417;SDS011;49;48.530;9.200;2022-12-08T08:07:44;15.30;;;9.97;;
417;SDS011;49;48.530;9.200;2022-12-08T08:10:12;18.13;;;12.13;;
417;SDS011;49;48.530;9.200;2022-12-08T08:12:42;20.00;;;12.70;;
417;SDS011;49;48.530;9.200;2022-12-08T08:15:09;19.00;;;11.13;;
417;SDS011;49;48.530;9.200;2022-12-08T08:17:37;12.67;;;9.40;;
417;SDS011;49;48.530;9.200;2022-12-08T08:20:05;21.27;;;10.40;;
417;SDS011;49;48.530;9.200;2022-12-08T08:22:33;20.87;;;11.67;;
417;SDS011;49;48.530;9.200;2022-12-08T08:25:02;17.83;;;11.50;;
417;SDS011;49;48.530;9.200;2022-12-08T08:27:31;17.23;;;11.70;;
417;SDS011;49;48.530;9.200;2022-12-08T08:29:59;21.30;;;12.30;;
417;SDS011;49;48.530;9.200;2022-12-08T08:32:26;20.43;;;9.97;;
417;SDS011;49;48.530;9.200;2022-12-08T08:34:53;22.63;;;12.53;;
417;SDS011;49;48.530;9.200;2022-12-08T08:37:20;19.97;;;12.47;;
417;SDS011;49;48.530;9.200;2022-12-08T08:39:47;19.43;;;12.37;;
417;SDS011;49;48.530;9.200;2022-12-08T08:42:15;24.27;;;13.17;;
417;SDS011;49;48.530;9.200;2022-12-08T08:44:45;22.70;;;13.30;;
417;SDS011;49;48.530;9.200;2022-12-08T08:47:14;27.67;;;13.23;;
417;SDS011;49;48.530;9.200;2022-12-08T08:49:43;28.03;;;14.60;;
417;SDS011;49;48.530;9.200;2022-12-08T08:52:11;24.13;;;12.33;;
417;SDS011;49;48.530;9.200;2022-12-08T08:54:38;18.17;;;9.90;;
417;SDS011;49;48.530;9.200;2022-12-08T08:57:07;18.77;;;10.47;;
417;SDS011;49;48.530;9.200;2022-12-08T08:59:36;21.20;;;12.00;;
417;SDS011;49;48.530;9.200;2022-12-08T09:02:08;22.50;;;9.40;;
417;SDS011;49;48.530;9.200;2022-12-08T09:04:40;16.53;;;10.63;;
417;SDS011;49;48.530;9.200;2022-12-08T09:07:07;15.70;;;10.27;;
417;SDS011;49;48.530;9.200;2022-12-08T09:09:34;19.73;;;12.77;;
417;SDS011;49;48.530;9.200;2022-12-08T09:12:02;20.40;;;12.83;;
417;SDS011;49;48.530;9.200;2022-12-08T09:14:29;15.37;;;10.23;;
417;SDS011;49;48.530;9.200;2022-12-08T09:16:57;16.53;;;11.10;;
417;SDS011;49;48.530;9.200;2022-12-08T09:19:24;20.07;;;11.93;;
417;SDS011;49;48.530;9.200;2022-12-08T09:21:53;17.13;;;10.47;;
417;SDS011;49;48.530;9.200;2022-12-08T09:24:20;24.67;;;14.60;;
417;SDS011;49;48.530;9.200;2022-12-08T09:26:48;19.47;;;12.10;;
417;SDS011;49;48.530;9.200;2022-12-08T09:29:15;34.07;;;16.90;;
417;SDS011;49;48.530;9.200;2022-12-08T09:31:42;24.50;;;15.40;;
417;SDS011;49;48.530;9.200;2022-12-08T09:34:11;25.60;;;10.80;;
417;SDS011;49;48.530;9.200;2022-12-08T09:36:38;18.10;;;11.53;;
417;SDS011;49;48.530;9.200;2022-12-08T09:39:05;29.03;;;12.50;;
417;SDS011;49;48.530;9.200;2022-12-08T09:41:33;56.40;;;24.73;;
417;SDS011;49;48.530;9.200;2022-12-08T09:44:04;41.63;;;20.00;;
417;SDS011;49;48.530;9.200;2022-12-08T09:46:44;21.67;;;13.03;;
417;SDS011;49;48.530;9.200;2022-12-08T09:49:15;16.90;;;10.60;;
417;SDS011;49;48.530;9.200;2022-12-08T09:51:45;21.30;;;10.53;;
417;SDS011;49;48.530;9.200;2022-12-08T09:54:14;18.00;;;9.40;;
417;SDS011;49;48.530;9.200;2022-12-08T09:56:45;13.90;;;9.60;;
417;SDS011;49;48.530;9.200;2022-12-08T09:59:19;16.60;;;8.70;;
417;SDS011;49;48.530;9.200;2022-12-08T10:01:48;17.90;;;9.70;;
417;SDS011;49;48.530;9.200;2022-12-08T10:04:20;16.00;;;9.20;;
417;SDS011;49;48.530;9.200;2022-12-08T10:06:52;21.63;;;8.53;;
417;SDS011;49;48.530;9.200;2022-12-08T10:09:28;18.00;;;8.70;;
417;SDS011;49;48.530;9.200;2022-12-08T10:12:06;19.47;;;9.90;;
417;SDS011;49;48.530;9.200;2022-12-08T10:14:41;13.83;;;9.13;;
417;SDS011;49;48.530;9.200;2022-12-08T10:17:11;15.50;;;9.53;;
417;SDS011;49;48.530;9.200;2022-12-08T10:19:44;14.20;;;9.03;;
417;SDS011;49;48.530;9.200;2022-12-08T10:22:14;14.13;;;8.50;;
417;SDS011;49;48.530;9.200;2022-12-08T10:24:49;18.37;;;9.00;;
417;SDS011;49;48.530;9.200;2022-12-08T10:27:22;13.17;;;8.63;;
417;SDS011;49;48.530;9.200;2022-12-08T10:29:50;13.60;;;9.07;;
417;SDS011;49;48.530;9.200;2022-12-08T10:32:18;15.17;;;8.30;;
417;SDS011;49;48.530;9.200;2022-12-08T10:35:02;12.73;;;8.57;;
417;SDS011;49;48.530;9.200;2022-12-08T10:37:31;13.90;;;8.83;;
417;SDS011;49;48.530;9.200;2022-12-08T10:39:59;17.87;;;9.07;;
417;SDS011;49;48.530;9.200;2022-12-08T10:42:31;13.00;;;8.80;;
417;SDS011;49;48.530;9.200;2022-12-08T10:45:08;11.60;;;8.37;;
417;SDS011;49;48.530;9.200;2022-12-08T10:47:46;14.43;;;8.37;;
417;SDS011;49;48.530;9.200;2022-12-08T10:50:26;11.67;;;8.60;;
417;SDS011;49;48.530;9.200;2022-12-08T10:52:57;13.53;;;9.37;;
417;SDS011;49;48.530;9.200;2022-12-08T10:55:27;22.50;;;9.10;;
417;SDS011;49;48.530;9.200;2022-12-08T10:58:04;17.57;;;10.07;;
417;SDS011;49;48.530;9.200;2022-12-08T11:00:39;10.90;;;6.83;;
417;SDS011;49;48.530;9.200;2022-12-08T11:03:18;13.00;;;6.53;;
417;SDS011;49;48.530;9.200;2022-12-08T11:05:54;8.20;;;6.30;;
417;SDS011;49;48.530;9.200;2022-12-08T11:08:22;12.07;;;6.80;;
417;SDS011;49;48.530;9.200;2022-12-08T11:10:49;9.87;;;7.47;;
417;SDS011;49;48.530;9.200;2022-12-08T11:13:19;13.10;;;7.40;;
417;SDS011;49;48.530;9.200;2022-12-08T11:15:48;10.73;;;7.40;;
417;SDS011;49;48.530;9.200;2022-12-08T11:18:20;11.57;;;7.07;;
417;SDS011;49;48.530;9.200;2022-12-08T11:20:57;12.27;;;7.53;;
417;SDS011;49;48.530;9.200;2022-12-08T11:23:27;9.30;;;6.90;;
417;SDS011;49;48.530;9.200;2022-12-08T11:25:56;10.50;;;6.90;;
417;SDS011;49;48.530;9.200;2022-12-08T11:28:28;9.47;;;6.47;;
417;SDS011;49;48.530;9.200;2022-12-08T11:30:57;13.10;;;6.47;;
417;SDS011;49;48.530;9.200;2022-12-08T11:33:29;8.87;;;5.97;;
417;SDS011;49;48.530;9.200;2022-12-08T11:35:59;10.30;;;5.80;;
417;SDS011;49;48.530;9.200;2022-12-08T11:38:29;9.30;;;6.17;;
417;SDS011;49;48.530;9.200;2022-12-08T11:41:00;8.17;;;5.70;;
417;SDS011;49;48.530;9.200;2022-12-08T11:43:36;7.90;;;5.43;;
417;SDS011;49;48.530;9.200;2022-12-08T11:46:11;10.17;;;5.67;;
417;SDS011;49;48.530;9.200;2022-12-08T11:48:43;9.47;;;6.03;;
417;SDS011;49;48.530;9.200;2022-12-08T11:51:18;8.53;;;5.80;;
417;SDS011;49;48.530;9.200;2022-12-08T11:53:55;8.43;;;5.50;;
417;SDS011;49;48.530;9.200;2022-12-08T11:56:32;7.33;;;5.87;;
417;SDS011;49;48.530;9.200;2022-12-08T11:59:02;8.90;;;5.57;;
417;SDS011;49;48.530;9.200;2022-12-08T12:01:38;7.43;;;5.50;;
417;SDS011;49;48.530;9.200;2022-12-08T12:04:09;13.47;;;5.83;;
417;SDS011;49;48.530;9.200;2022-12-08T12:09:54;8.10;;;6.20;;
417;SDS011;49;48.530;9.200;2022-12-08T12:12:45;6.80;;;5.33;;
417;SDS011;49;48.530;9.200;2022-12-08T12:18:30;9.80;;;6.03;;
417;SDS011;49;48.530;9.200;2022-12-08T12:21:04;9.60;;;6.57;;
417;SDS011;49;48.530;9.200;2022-12-08T12:23:36;6.70;;;4.80;;
417;SDS011;49;48.530;9.200;2022-12-08T12:26:16;8.13;;;5.80;;
417;SDS011;49;48.530;9.200;2022-12-08T12:28:46;7.20;;;5.60;;
417;SDS011;49;48.530;9.200;2022-12-08T12:31:17;7.97;;;5.10;;
417;SDS011;49;48.530;9.200;2022-12-08T12:33:47;9.63;;;4.80;;
417;SDS011;49;48.530;9.200;2022-12-08T12:36:15;8.43;;;5.20;;
417;SDS011;49;48.530;9.200;2022-12-08T12:38:44;8.30;;;5.97;;
417;SDS011;49;48.530;9.200;2022-12-08T12:41:36;10.10;;;5.70;;
417;SDS011;49;48.530;9.200;2022-12-08T12:47:09;8.20;;;5.83;;
417;SDS011;49;48.530;9.200;2022-12-08T12:49:48;6.63;;;5.10;;
417;SDS011;49;48.530;9.200;2022-12-08T12:52:37;10.63;;;6.10;;
417;SDS011;49;48.530;9.200;2022-12-08T12:58:20;9.30;;;6.17;;
417;SDS011;49;48.530;9.200;2022-12-08T13:04:06;7.37;;;5.13;;
417;SDS011;49;48.530;9.200;2022-12-08T13:06:37;7.73;;;5.50;;
417;SDS011;49;48.530;9.200;2022-12-08T13:09:15;11.07;;;5.93;;
417;SDS011;49;48.530;9.200;2022-12-08T13:11:47;8.17;;;5.33;;
417;SDS011;49;48.530;9.200;2022-12-08T13:14:28;8.80;;;5.70;;
417;SDS011;49;48.530;9.200;2022-12-08T13:16:57;9.90;;;5.40;;
417;SDS011;49;48.530;9.200;2022-12-08T13:19:32;10.63;;;5.47;;
417;SDS011;49;48.530;9.200;2022-12-08T13:28:22;8.03;;;5.80;;
417;SDS011;49;48.530;9.200;2022-12-08T13:30:53;13.33;;;4.67;;
417;SDS011;49;48.530;9.200;2022-12-08T13:33:22;8.07;;;4.80;;
417;SDS011;49;48.530;9.200;2022-12-08T13:36:00;6.30;;;5.23;;
417;SDS011;49;48.530;9.200;2022-12-08T13:38:36;8.70;;;5.50;;
417;SDS011;49;48.530;9.200;2022-12-08T13:41:15;6.33;;;4.90;;
417;SDS011;49;48.530;9.200;2022-12-08T13:43:48;8.40;;;5.80;;
417;SDS011;49;48.530;9.200;2022-12-08T13:46:31;9.17;;;6.07;;
417;SDS011;49;48.530;9.200;2022-12-08T13:49:02;9.67;;;6.40;;
417;SDS011;49;48.530;9.200;2022-12-08T13:51:36;11.70;;;6.47;;
417;SDS011;49;48.530;9.200;2022-12-08T13:54:09;9.77;;;6.80;;
417;SDS011;49;48.530;9.200;2022-12-08T13:56:44;17.27;;;8.20;;
417;SDS011;49;48.530;9.200;2022-12-08T13:59:23;8.53;;;6.23;;
417;SDS011;49;48.530;9.200;2022-12-08T14:01:58;14.00;;;7.80;;
417;SDS011;49;48.530;9.200;2022-12-08T14:04:29;6.67;;;5.40;;
417;SDS011;49;48.530;9.200;2022-12-08T14:06:57;5.90;;;4.93;;
417;SDS011;49;48.530;9.200;2022-12-08T14:09:31;11.53;;;5.80;;
417;SDS011;49;48.530;9.200;2022-12-08T14:12:03;16.03;;;7.40;;
417;SDS011;49;48.530;9.200;2022-12-08T14:14:33;8.80;;;5.67;;
417;SDS011;49;48.530;9.200;2022-12-08T14:17:08;9.40;;;6.27;;
417;SDS011;49;48.530;9.200;2022-12-08T14:19:38;11.60;;;6.37;;
417;SDS011;49;48.530;9.200;2022-12-08T14:22:09;7.57;;;5.53;;
417;SDS011;49;48.530;9.200;2022-12-08T14:24:38;12.30;;;6.90;;
417;SDS011;49;48.530;9.200;2022-12-08T14:27:10;10.63;;;5.93;;
417;SDS011;49;48.530;9.200;2022-12-08T14:29:43;16.83;;;7.30;;
417;SDS011;49;48.530;9.200;2022-12-08T14:32:21;8.20;;;5.77;;
417;SDS011;49;48.530;9.200;2022-12-08T14:34:55;14.00;;;5.83;;
417;SDS011;49;48.530;9.200;2022-12-08T14:37:27;18.70;;;7.00;;
417;SDS011;49;48.530;9.200;2022-12-08T14:39:57;9.47;;;6.30;;
417;SDS011;49;48.530;9.200;2022-12-08T14:42:27;11.30;;;6.50;;
417;SDS011;49;48.530;9.200;2022-12-08T14:44:57;14.77;;;9.20;;
417;SDS011;49;48.530;9.200;2022-12-08T14:47:35;9.30;;;6.90;;
417;SDS011;49;48.530;9.200;2022-12-08T14:50:03;9.97;;;5.93;;
417;SDS011;49;48.530;9.200;2022-12-08T14:52:51;20.47;;;8.03;;
417;SDS011;49;48.530;9.200;2022-12-08T14:55:18;14.83;;;7.40;;
417;SDS011;49;48.530;9.200;2022-12-08T14:57:46;13.70;;;7.53;;
417;SDS011;49;48.530;9.200;2022-12-08T15:00:17;10.70;;;6.90;;
417;SDS011;49;48.530;9.200;2022-12-08T15:02:47;15.97;;;10.60;;
417;SDS011;49;48.530;9.200;2022-12-08T15:05:17;11.87;;;7.53;;
417;SDS011;49;48.530;9.200;2022-12-08T15:07:47;10.40;;;7.97;;
417;SDS011;49;48.530;9.200;2022-12-08T15:10:19;16.13;;;7.23;;
417;SDS011;49;48.530;9.200;2022-12-08T15:12:58;10.20;;;7.00;;
417;SDS011;49;48.530;9.200;2022-12-08T15:15:28;11.13;;;7.70;;
417;SDS011;49;48.530;9.200;2022-12-08T15:18:00;13.73;;;6.87;;
417;SDS011;49;48.530;9.200;2022-12-08T15:20:31;18.07;;;7.43;;
417;SDS011;49;48.530;9.200;2022-12-08T15:23:16;13.83;;;8.40;;
417;SDS011;49;48.530;9.200;2022-12-08T15:25:51;10.83;;;6.83;;
417;SDS011;49;48.530;9.200;2022-12-08T15:28:19;12.37;;;7.13;;
417;SDS011;49;48.530;9.200;2022-12-08T15:30:50;12.87;;;8.40;;
417;SDS011;49;48.530;9.200;2022-12-08T15:33:20;14.57;;;8.70;;
417;SDS011;49;48.530;9.200;2022-12-08T15:35:49;12.43;;;7.50;;
417;SDS011;49;48.530;9.200;2022-12-08T15:38:20;14.43;;;7.70;;
417;SDS011;49;48.530;9.200;2022-12-08T15:40:53;12.60;;;8.30;;
417;SDS011;49;48.530;9.200;2022-12-08T15:43:22;12.77;;;8.40;;
417;SDS011;49;48.530;9.200;2022-12-08T15:45:49;14.43;;;8.10;;
417;SDS011;49;48.530;9.200;2022-12-08T15:48:20;15.53;;;7.50;;
417;SDS011;49;48.530;9.200;2022-12-08T15:50:49;12.87;;;7.90;;
417;SDS011;49;48.530;9.200;2022-12-08T15:53:17;12.60;;;7.20;;
417;SDS011;49;48.530;9.200;2022-12-08T15:55:44;11.43;;;7.50;;
417;SDS011;49;48.530;9.200;2022-12-08T15:58:18;13.50;;;7.47;;
417;SDS011;49;48.530;9.200;2022-12-08T16:00:47;8.20;;;5.93;;
417;SDS011;49;48.530;9.200;2022-12-08T16:03:21;10.77;;;6.60;;
417;SDS011;49;48.530;9.200;2022-12-08T16:05:49;9.90;;;6.53;;
417;SDS011;49;48.530;9.200;2022-12-08T16:08:17;11.67;;;7.50;;
417;SDS011;49;48.530;9.200;2022-12-08T16:10:45;15.23;;;8.53;;
417;SDS011;49;48.530;9.200;2022-12-08T16:13:16;13.67;;;8.13;;
417;SDS011;49;48.530;9.200;2022-12-08T16:16:01;14.60;;;9.17;;
417;SDS011;49;48.530;9.200;2022-12-08T16:18:36;22.30;;;12.90;;
417;SDS011;49;48.530;9.200;2022-12-08T16:21:08;22.97;;;10.17;;
417;SDS011;49;48.530;9.200;2022-12-08T16:23:36;20.90;;;11.07;;
417;SDS011;49;48.530;9.200;2022-12-08T16:26:03;12.13;;;7.63;;
417;SDS011;49;48.530;9.200;2022-12-08T16:28:29;8.23;;;5.60;;
417;SDS011;49;48.530;9.200;2022-12-08T16:30:56;9.60;;;5.40;;
417;SDS011;49;48.530;9.200;2022-12-08T16:33:23;9.70;;;6.30;;
417;SDS011;49;48.530;9.200;2022-12-08T16:35:52;9.23;;;5.87;;